Aviation Digital Data Service (ADDS)

Output produced by METARs form (1011 UTC 26 August 2016)
found at http://aviationweather.gov/adds/metars/
 
KPQI 260931Z 2610/2706 24006KT P6SM SCT020 BKN060 
     TEMPO 2610/2614 BKN020 
     FM261400 24008KT P6SM VCSH BKN045 
     FM262100 30008KT P6SM BKN050